sensor_id;sensor_type;location;lat;lon;timestamp;temperature;humidity
9772;DHT22;4925;52.588;13.370;2024-03-22T00:01:56;8.50;99.90
9772;DHT22;4925;52.588;13.370;2024-03-22T00:04:22;8.50;99.90
9772;DHT22;4925;52.588;13.370;2024-03-22T00:06:50;8.50;99.90
9772;DHT22;4925;52.588;13.370;2024-03-22T00:09:16;8.50;99.90
9772;DHT22;4925;52.588;13.370;2024-03-22T00:11:43;8.60;99.90
9772;DHT22;4925;52.588;13.370;2024-03-22T00:14:09;8.70;99.90
9772;DHT22;4925;52.588;13.370;2024-03-22T00:16:36;8.60;99.90
9772;DHT22;4925;52.588;13.370;2024-03-22T00:19:03;8.60;99.90
9772;DHT22;4925;52.588;13.370;2024-03-22T00:21:28;8.70;99.90
9772;DHT22;4925;52.588;13.370;2024-03-22T00:23:55;8.70;99.90
9772;DHT22;4925;52.588;13.370;2024-03-22T00:26:21;8.80;99.90
9772;DHT22;4925;52.588;13.370;2024-03-22T00:28:47;8.70;99.90
9772;DHT22;4925;52.588;13.370;2024-03-22T00:31:13;8.70;99.90
9772;DHT22;4925;52.588;13.370;2024-03-22T00:33:38;8.60;99.90
9772;DHT22;4925;52.588;13.370;2024-03-22T00:36:04;8.60;99.90
9772;DHT22;4925;52.588;13.370;2024-03-22T00:38:30;8.60;99.90
9772;DHT22;4925;52.588;13.370;2024-03-22T00:40:56;8.50;99.90
9772;DHT22;4925;52.588;13.370;2024-03-22T00:43:21;8.60;99.90
9772;DHT22;4925;52.588;13.370;2024-03-22T00:45:47;8.70;99.90
9772;DHT22;4925;52.588;13.370;2024-03-22T00:48:15;8.70;99.90
9772;DHT22;4925;52.588;13.370;2024-03-22T00:50:40;8.80;99.90
9772;DHT22;4925;52.588;13.370;2024-03-22T00:53:07;9.00;99.90
9772;DHT22;4925;52.588;13.370;2024-03-22T00:55:35;8.90;99.90
9772;DHT22;4925;52.588;13.370;2024-03-22T00:58:01;8.90;99.90
9772;DHT22;4925;52.588;13.370;2024-03-22T01:00:28;8.90;99.90
9772;DHT22;4925;52.588;13.370;2024-03-22T01:02:53;8.90;99.90
9772;DHT22;4925;52.588;13.370;2024-03-22T01:05:22;8.90;99.90
9772;DHT22;4925;52.588;13.370;2024-03-22T01:07:48;8.90;99.90
9772;DHT22;4925;52.588;13.370;2024-03-22T01:10:13;9.00;99.90
9772;DHT22;4925;52.588;13.370;2024-03-22T01:12:39;9.10;99.90
9772;DHT22;4925;52.588;13.370;2024-03-22T01:15:10;9.10;99.90
9772;DHT22;4925;52.588;13.370;2024-03-22T01:17:36;9.10;99.90
9772;DHT22;4925;52.588;13.370;2024-03-22T01:20:02;9.00;99.90
9772;DHT22;4925;52.588;13.370;2024-03-22T01:22:28;9.10;99.90
9772;DHT22;4925;52.588;13.370;2024-03-22T01:24:54;9.10;99.90
9772;DHT22;4925;52.588;13.370;2024-03-22T01:27:19;9.00;99.90
9772;DHT22;4925;52.588;13.370;2024-03-22T01:29:49;9.00;99.90
9772;DHT22;4925;52.588;13.370;2024-03-22T01:32:18;9.10;99.90
9772;DHT22;4925;52.588;13.370;2024-03-22T01:34:43;9.20;99.90
9772;DHT22;4925;52.588;13.370;2024-03-22T01:37:09;9.10;99.90
9772;DHT22;4925;52.588;13.370;2024-03-22T01:39:35;9.10;99.90
9772;DHT22;4925;52.588;13.370;2024-03-22T01:42:01;9.00;99.90
9772;DHT22;4925;52.588;13.370;2024-03-22T01:44:28;9.00;99.90
9772;DHT22;4925;52.588;13.370;2024-03-22T01:46:54;8.90;99.90
9772;DHT22;4925;52.588;13.370;2024-03-22T01:49:20;8.90;99.90
9772;DHT22;4925;52.588;13.370;2024-03-22T01:51:47;8.90;99.90
9772;DHT22;4925;52.588;13.370;2024-03-22T01:54:15;8.90;99.90
9772;DHT22;4925;52.588;13.370;2024-03-22T01:56:42;8.90;99.90
9772;DHT22;4925;52.588;13.370;2024-03-22T01:59:09;9.00;99.90
9772;DHT22;4925;52.588;13.370;2024-03-22T02:08:04;8.90;99.90
9772;DHT22;4925;52.588;13.370;2024-03-22T02:10:29;8.80;99.90
9772;DHT22;4925;52.588;13.370;2024-03-22T02:12:56;8.70;99.90
9772;DHT22;4925;52.588;13.370;2024-03-22T02:15:22;8.70;99.90
9772;DHT22;4925;52.588;13.370;2024-03-22T02:17:48;8.60;99.90
9772;DHT22;4925;52.588;13.370;2024-03-22T02:20:13;8.80;99.90
9772;DHT22;4925;52.588;13.370;2024-03-22T02:22:39;8.80;99.90
9772;DHT22;4925;52.588;13.370;2024-03-22T02:25:06;8.80;99.90
9772;DHT22;4925;52.588;13.370;2024-03-22T02:27:37;8.90;99.90
9772;DHT22;4925;52.588;13.370;2024-03-22T02:30:02;9.00;99.90
9772;DHT22;4925;52.588;13.370;2024-03-22T02:32:28;8.90;99.90
9772;DHT22;4925;52.588;13.370;2024-03-22T02:34:54;8.90;99.90
9772;DHT22;4925;52.588;13.370;2024-03-22T02:37:19;8.90;99.90
9772;DHT22;4925;52.588;13.370;2024-03-22T02:39:47;9.00;99.90
9772;DHT22;4925;52.588;13.370;2024-03-22T02:42:16;9.00;99.90
9772;DHT22;4925;52.588;13.370;2024-03-22T02:44:42;8.90;99.90
9772;DHT22;4925;52.588;13.370;2024-03-22T02:47:09;8.80;99.90
9772;DHT22;4925;52.588;13.370;2024-03-22T02:49:37;8.80;99.90
9772;DHT22;4925;52.588;13.370;2024-03-22T02:52:02;8.70;99.90
9772;DHT22;4925;52.588;13.370;2024-03-22T02:54:28;8.70;99.90
9772;DHT22;4925;52.588;13.370;2024-03-22T02:56:54;8.80;99.90
9772;DHT22;4925;52.588;13.370;2024-03-22T02:59:19;8.70;99.90
9772;DHT22;4925;52.588;13.370;2024-03-22T03:01:45;8.70;99.90
9772;DHT22;4925;52.588;13.370;2024-03-22T03:04:10;8.70;99.90
9772;DHT22;4925;52.588;13.370;2024-03-22T03:06:36;8.70;99.90
9772;DHT22;4925;52.588;13.370;2024-03-22T03:09:02;8.60;99.90
9772;DHT22;4925;52.588;13.370;2024-03-22T03:11:28;8.70;99.90
9772;DHT22;4925;52.588;13.370;2024-03-22T03:13:54;8.70;99.90
9772;DHT22;4925;52.588;13.370;2024-03-22T03:16:19;8.70;99.90
9772;DHT22;4925;52.588;13.370;2024-03-22T03:18:45;8.70;99.90
9772;DHT22;4925;52.588;13.370;2024-03-22T03:21:10;8.70;99.90
9772;DHT22;4925;52.588;13.370;2024-03-22T03:23:36;8.70;99.90
9772;DHT22;4925;52.588;13.370;2024-03-22T03:26:02;8.70;99.90
9772;DHT22;4925;52.588;13.370;2024-03-22T03:28:28;8.60;99.90
9772;DHT22;4925;52.588;13.370;2024-03-22T03:30:54;8.60;99.90
9772;DHT22;4925;52.588;13.370;2024-03-22T03:33:19;8.60;99.90
9772;DHT22;4925;52.588;13.370;2024-03-22T03:35:46;8.70;99.90
9772;DHT22;4925;52.588;13.370;2024-03-22T03:38:12;8.80;99.90
9772;DHT22;4925;52.588;13.370;2024-03-22T03:40:38;8.90;99.90
9772;DHT22;4925;52.588;13.370;2024-03-22T03:43:05;8.90;99.90
9772;DHT22;4925;52.588;13.370;2024-03-22T03:45:30;9.00;99.90
9772;DHT22;4925;52.588;13.370;2024-03-22T03:47:56;9.10;99.90
9772;DHT22;4925;52.588;13.370;2024-03-22T03:50:21;9.10;99.90
9772;DHT22;4925;52.588;13.370;2024-03-22T03:52:48;9.00;99.90
9772;DHT22;4925;52.588;13.370;2024-03-22T03:55:16;9.00;99.90
9772;DHT22;4925;52.588;13.370;2024-03-22T03:57:42;8.90;99.90
9772;DHT22;4925;52.588;13.370;2024-03-22T04:00:08;8.80;99.90
9772;DHT22;4925;52.588;13.370;2024-03-22T04:02:33;8.80;99.90
9772;DHT22;4925;52.588;13.370;2024-03-22T04:04:59;8.80;99.90
9772;DHT22;4925;52.588;13.370;2024-03-22T04:07:26;8.90;99.90
9772;DHT22;4925;52.588;13.370;2024-03-22T04:09:53;8.80;99.90
9772;DHT22;4925;52.588;13.370;2024-03-22T04:12:18;8.80;99.90
9772;DHT22;4925;52.588;13.370;2024-03-22T04:14:44;8.90;99.90
9772;DHT22;4925;52.588;13.370;2024-03-22T04:17:11;8.90;99.90
9772;DHT22;4925;52.588;13.370;2024-03-22T04:19:37;8.90;99.90
9772;DHT22;4925;52.588;13.370;2024-03-22T04:22:03;8.80;99.90
9772;DHT22;4925;52.588;13.370;2024-03-22T04:24:29;8.80;99.90
9772;DHT22;4925;52.588;13.370;2024-03-22T04:26:55;8.80;99.90
9772;DHT22;4925;52.588;13.370;2024-03-22T04:29:20;8.80;99.90
9772;DHT22;4925;52.588;13.370;2024-03-22T04:31:46;8.80;99.90
9772;DHT22;4925;52.588;13.370;2024-03-22T04:34:11;8.80;99.90
9772;DHT22;4925;52.588;13.370;2024-03-22T04:36:37;8.80;99.90
9772;DHT22;4925;52.588;13.370;2024-03-22T04:39:03;8.80;99.90
9772;DHT22;4925;52.588;13.370;2024-03-22T04:41:29;8.80;99.90
9772;DHT22;4925;52.588;13.370;2024-03-22T04:43:54;8.80;99.90
9772;DHT22;4925;52.588;13.370;2024-03-22T04:46:20;8.80;99.90
9772;DHT22;4925;52.588;13.370;2024-03-22T04:48:46;8.80;99.90
9772;DHT22;4925;52.588;13.370;2024-03-22T04:51:11;9.00;99.90
9772;DHT22;4925;52.588;13.370;2024-03-22T04:53:37;8.90;99.90
9772;DHT22;4925;52.588;13.370;2024-03-22T04:56:04;8.90;99.90
9772;DHT22;4925;52.588;13.370;2024-03-22T04:58:33;8.90;99.90
9772;DHT22;4925;52.588;13.370;2024-03-22T05:00:59;8.90;99.90
9772;DHT22;4925;52.588;13.370;2024-03-22T05:03:25;8.90;99.90
9772;DHT22;4925;52.588;13.370;2024-03-22T05:05:51;8.90;99.90
9772;DHT22;4925;52.588;13.370;2024-03-22T05:08:17;8.90;99.90
9772;DHT22;4925;52.588;13.370;2024-03-22T05:10:44;8.90;99.90
9772;DHT22;4925;52.588;13.370;2024-03-22T05:13:11;8.90;99.90
9772;DHT22;4925;52.588;13.370;2024-03-22T05:15:36;8.90;99.90
9772;DHT22;4925;52.588;13.370;2024-03-22T05:18:02;9.00;99.90
9772;DHT22;4925;52.588;13.370;2024-03-22T05:20:28;9.00;99.90
9772;DHT22;4925;52.588;13.370;2024-03-22T05:22:55;9.00;99.90
9772;DHT22;4925;52.588;13.370;2024-03-22T05:25:21;9.00;99.90
9772;DHT22;4925;52.588;13.370;2024-03-22T05:27:47;9.00;99.90
9772;DHT22;4925;52.588;13.370;2024-03-22T05:30:13;9.10;99.90
9772;DHT22;4925;52.588;13.370;2024-03-22T05:32:42;9.10;99.90
9772;DHT22;4925;52.588;13.370;2024-03-22T05:35:08;9.20;99.90
9772;DHT22;4925;52.588;13.370;2024-03-22T05:37:34;9.20;99.90
9772;DHT22;4925;52.588;13.370;2024-03-22T05:40:00;9.20;99.90
9772;DHT22;4925;52.588;13.370;2024-03-22T05:42:26;9.30;99.90
9772;DHT22;4925;52.588;13.370;2024-03-22T05:44:52;9.30;99.90
9772;DHT22;4925;52.588;13.370;2024-03-22T05:47:18;9.40;99.90
9772;DHT22;4925;52.588;13.370;2024-03-22T05:49:46;9.40;99.90
9772;DHT22;4925;52.588;13.370;2024-03-22T05:52:12;9.40;99.90
9772;DHT22;4925;52.588;13.370;2024-03-22T05:54:37;9.50;99.90
9772;DHT22;4925;52.588;13.370;2024-03-22T05:57:03;9.50;99.90
9772;DHT22;4925;52.588;13.370;2024-03-22T05:59:31;9.40;99.90
9772;DHT22;4925;52.588;13.370;2024-03-22T06:01:57;9.50;99.90
9772;DHT22;4925;52.588;13.370;2024-03-22T06:04:23;9.50;99.90
9772;DHT22;4925;52.588;13.370;2024-03-22T06:06:51;9.50;99.90
9772;DHT22;4925;52.588;13.370;2024-03-22T06:09:16;9.60;99.90
9772;DHT22;4925;52.588;13.370;2024-03-22T06:11:50;9.60;99.90
9772;DHT22;4925;52.588;13.370;2024-03-22T06:14:16;9.60;99.90
9772;DHT22;4925;52.588;13.370;2024-03-22T06:16:41;9.70;99.90
9772;DHT22;4925;52.588;13.370;2024-03-22T06:19:07;9.70;99.90
9772;DHT22;4925;52.588;13.370;2024-03-22T06:21:33;9.70;99.90
9772;DHT22;4925;52.588;13.370;2024-03-22T06:23:58;9.70;99.90
9772;DHT22;4925;52.588;13.370;2024-03-22T06:26:24;9.60;99.90
9772;DHT22;4925;52.588;13.370;2024-03-22T06:28:49;9.60;99.90
9772;DHT22;4925;52.588;13.370;2024-03-22T06:31:15;9.60;99.90
9772;DHT22;4925;52.588;13.370;2024-03-22T06:33:41;9.60;99.90
9772;DHT22;4925;52.588;13.370;2024-03-22T06:36:08;9.70;99.90
9772;DHT22;4925;52.588;13.370;2024-03-22T06:38:33;9.70;99.90
9772;DHT22;4925;52.588;13.370;2024-03-22T06:40:59;9.70;99.90
9772;DHT22;4925;52.588;13.370;2024-03-22T06:43:26;9.80;99.90
9772;DHT22;4925;52.588;13.370;2024-03-22T06:45:53;9.80;99.90
9772;DHT22;4925;52.588;13.370;2024-03-22T06:48:19;9.70;99.90
9772;DHT22;4925;52.588;13.370;2024-03-22T06:50:46;9.80;99.90
9772;DHT22;4925;52.588;13.370;2024-03-22T06:53:12;9.80;99.90
9772;DHT22;4925;52.588;13.370;2024-03-22T06:55:37;9.80;99.90
9772;DHT22;4925;52.588;13.370;2024-03-22T06:58:03;9.90;99.90
9772;DHT22;4925;52.588;13.370;2024-03-22T07:00:30;10.00;99.90
9772;DHT22;4925;52.588;13.370;2024-03-22T07:02:56;10.00;99.90
9772;DHT22;4925;52.588;13.370;2024-03-22T07:05:24;10.10;99.90
9772;DHT22;4925;52.588;13.370;2024-03-22T07:07:49;10.10;99.90
9772;DHT22;4925;52.588;13.370;2024-03-22T07:10:16;10.00;99.90
9772;DHT22;4925;52.588;13.370;2024-03-22T07:12:41;9.90;99.90
9772;DHT22;4925;52.588;13.370;2024-03-22T07:15:07;10.10;99.90
9772;DHT22;4925;52.588;13.370;2024-03-22T07:17:33;10.10;99.90
9772;DHT22;4925;52.588;13.370;2024-03-22T07:19:59;10.10;99.90
9772;DHT22;4925;52.588;13.370;2024-03-22T07:22:24;10.20;99.90
9772;DHT22;4925;52.588;13.370;2024-03-22T07:24:50;10.20;99.90
9772;DHT22;4925;52.588;13.370;2024-03-22T07:27:16;10.10;99.90
9772;DHT22;4925;52.588;13.370;2024-03-22T07:29:43;10.20;99.90
9772;DHT22;4925;52.588;13.370;2024-03-22T07:32:09;10.20;99.90
9772;DHT22;4925;52.588;13.370;2024-03-22T07:34:35;10.30;99.90
9772;DHT22;4925;52.588;13.370;2024-03-22T07:37:00;10.40;99.90
9772;DHT22;4925;52.588;13.370;2024-03-22T07:39:26;10.30;99.90
9772;DHT22;4925;52.588;13.370;2024-03-22T07:41:52;10.30;99.90
9772;DHT22;4925;52.588;13.370;2024-03-22T07:44:17;10.40;99.90
9772;DHT22;4925;52.588;13.370;2024-03-22T07:46:45;10.50;99.90
9772;DHT22;4925;52.588;13.370;2024-03-22T07:49:12;10.40;99.90
9772;DHT22;4925;52.588;13.370;2024-03-22T07:51:37;10.40;99.90
9772;DHT22;4925;52.588;13.370;2024-03-22T07:54:03;10.50;99.90
9772;DHT22;4925;52.588;13.370;2024-03-22T07:56:29;10.50;99.90
9772;DHT22;4925;52.588;13.370;2024-03-22T07:58:55;10.70;99.90
9772;DHT22;4925;52.588;13.370;2024-03-22T08:01:21;10.70;99.90
9772;DHT22;4925;52.588;13.370;2024-03-22T08:03:47;10.60;99.90
9772;DHT22;4925;52.588;13.370;2024-03-22T08:06:13;10.60;99.90
9772;DHT22;4925;52.588;13.370;2024-03-22T08:08:38;10.60;99.90
9772;DHT22;4925;52.588;13.370;2024-03-22T08:11:04;10.70;99.90
9772;DHT22;4925;52.588;13.370;2024-03-22T08:13:29;10.60;99.90
9772;DHT22;4925;52.588;13.370;2024-03-22T08:15:56;10.70;99.90
9772;DHT22;4925;52.588;13.370;2024-03-22T08:18:22;10.70;99.90
9772;DHT22;4925;52.588;13.370;2024-03-22T08:20:48;10.80;99.90
9772;DHT22;4925;52.588;13.370;2024-03-22T08:23:14;10.80;99.90
9772;DHT22;4925;52.588;13.370;2024-03-22T08:25:39;10.80;99.90
9772;DHT22;4925;52.588;13.370;2024-03-22T08:28:05;10.80;99.90
9772;DHT22;4925;52.588;13.370;2024-03-22T08:30:30;10.90;99.90
9772;DHT22;4925;52.588;13.370;2024-03-22T08:32:56;10.90;99.90
9772;DHT22;4925;52.588;13.370;2024-03-22T08:35:21;11.00;99.90
9772;DHT22;4925;52.588;13.370;2024-03-22T08:37:47;11.10;99.90
9772;DHT22;4925;52.588;13.370;2024-03-22T08:40:13;11.20;99.90
9772;DHT22;4925;52.588;13.370;2024-03-22T08:42:39;11.20;99.90
9772;DHT22;4925;52.588;13.370;2024-03-22T08:45:05;11.20;99.90
9772;DHT22;4925;52.588;13.370;2024-03-22T08:47:31;11.20;99.90
9772;DHT22;4925;52.588;13.370;2024-03-22T08:49:59;11.40;99.90
9772;DHT22;4925;52.588;13.370;2024-03-22T08:52:25;11.30;99.90
9772;DHT22;4925;52.588;13.370;2024-03-22T08:54:54;11.40;99.90
9772;DHT22;4925;52.588;13.370;2024-03-22T08:57:19;11.40;99.90
9772;DHT22;4925;52.588;13.370;2024-03-22T08:59:45;11.50;99.90
9772;DHT22;4925;52.588;13.370;2024-03-22T09:02:11;11.70;99.90
9772;DHT22;4925;52.588;13.370;2024-03-22T09:04:38;11.80;99.90
9772;DHT22;4925;52.588;13.370;2024-03-22T09:07:04;11.90;99.90
9772;DHT22;4925;52.588;13.370;2024-03-22T09:09:29;11.90;99.90
9772;DHT22;4925;52.588;13.370;2024-03-22T09:11:55;12.00;99.90
9772;DHT22;4925;52.588;13.370;2024-03-22T09:14:21;12.10;99.90
9772;DHT22;4925;52.588;13.370;2024-03-22T09:16:46;12.20;99.90
9772;DHT22;4925;52.588;13.370;2024-03-22T09:19:12;12.20;99.90
9772;DHT22;4925;52.588;13.370;2024-03-22T09:21:37;12.20;99.90
9772;DHT22;4925;52.588;13.370;2024-03-22T09:24:03;12.30;99.90
9772;DHT22;4925;52.588;13.370;2024-03-22T09:26:30;12.30;99.90
9772;DHT22;4925;52.588;13.370;2024-03-22T09:28:57;12.40;99.90
9772;DHT22;4925;52.588;13.370;2024-03-22T09:31:22;12.40;99.90
9772;DHT22;4925;52.588;13.370;2024-03-22T09:33:48;12.40;99.90
9772;DHT22;4925;52.588;13.370;2024-03-22T09:36:13;12.40;99.90
9772;DHT22;4925;52.588;13.370;2024-03-22T09:38:39;12.40;99.90
9772;DHT22;4925;52.588;13.370;2024-03-22T09:41:05;12.50;99.90
9772;DHT22;4925;52.588;13.370;2024-03-22T09:43:31;12.60;99.90
9772;DHT22;4925;52.588;13.370;2024-03-22T09:45:58;12.60;99.90
9772;DHT22;4925;52.588;13.370;2024-03-22T09:48:24;12.60;99.90
9772;DHT22;4925;52.588;13.370;2024-03-22T09:50:50;12.70;99.90
9772;DHT22;4925;52.588;13.370;2024-03-22T09:53:18;12.70;99.90
9772;DHT22;4925;52.588;13.370;2024-03-22T09:55:45;12.70;99.90
9772;DHT22;4925;52.588;13.370;2024-03-22T09:58:12;12.70;99.90
9772;DHT22;4925;52.588;13.370;2024-03-22T10:00:38;12.60;99.90
9772;DHT22;4925;52.588;13.370;2024-03-22T10:03:04;12.60;99.90
9772;DHT22;4925;52.588;13.370;2024-03-22T10:05:31;12.70;99.90
9772;DHT22;4925;52.588;13.370;2024-03-22T10:07:57;12.70;99.90
9772;DHT22;4925;52.588;13.370;2024-03-22T10:10:23;12.60;99.90
9772;DHT22;4925;52.588;13.370;2024-03-22T10:12:49;12.60;99.90
9772;DHT22;4925;52.588;13.370;2024-03-22T10:15:14;12.60;99.90
9772;DHT22;4925;52.588;13.370;2024-03-22T10:17:42;12.60;99.90
9772;DHT22;4925;52.588;13.370;2024-03-22T10:20:08;12.60;99.90
9772;DHT22;4925;52.588;13.370;2024-03-22T10:22:57;12.70;99.90
9772;DHT22;4925;52.588;13.370;2024-03-22T10:25:24;12.60;99.90
9772;DHT22;4925;52.588;13.370;2024-03-22T10:27:50;12.70;99.90
9772;DHT22;4925;52.588;13.370;2024-03-22T10:30:16;12.70;99.90
9772;DHT22;4925;52.588;13.370;2024-03-22T10:32:44;12.80;99.90
9772;DHT22;4925;52.588;13.370;2024-03-22T10:35:12;12.80;99.90
9772;DHT22;4925;52.588;13.370;2024-03-22T10:37:39;12.80;99.90
9772;DHT22;4925;52.588;13.370;2024-03-22T10:40:05;12.70;99.90
9772;DHT22;4925;52.588;13.370;2024-03-22T10:42:39;12.80;99.90
9772;DHT22;4925;52.588;13.370;2024-03-22T10:45:07;12.80;99.90
9772;DHT22;4925;52.588;13.370;2024-03-22T10:47:35;12.80;99.90
9772;DHT22;4925;52.588;13.370;2024-03-22T10:50:09;12.90;99.90
9772;DHT22;4925;52.588;13.370;2024-03-22T10:52:57;13.00;99.90
9772;DHT22;4925;52.588;13.370;2024-03-22T10:55:30;13.00;99.90
9772;DHT22;4925;52.588;13.370;2024-03-22T10:57:57;13.10;99.90
9772;DHT22;4925;52.588;13.370;2024-03-22T11:00:34;13.20;99.90
9772;DHT22;4925;52.588;13.370;2024-03-22T11:03:04;13.20;99.90
9772;DHT22;4925;52.588;13.370;2024-03-22T11:05:33;13.30;99.90
9772;DHT22;4925;52.588;13.370;2024-03-22T11:08:04;13.40;99.90
9772;DHT22;4925;52.588;13.370;2024-03-22T11:10:39;13.30;99.90
9772;DHT22;4925;52.588;13.370;2024-03-22T11:13:05;13.30;99.90
9772;DHT22;4925;52.588;13.370;2024-03-22T11:15:33;13.30;99.90
9772;DHT22;4925;52.588;13.370;2024-03-22T11:18:08;13.20;99.90
9772;DHT22;4925;52.588;13.370;2024-03-22T11:20:36;13.30;99.90
9772;DHT22;4925;52.588;13.370;2024-03-22T11:23:04;13.30;99.90
9772;DHT22;4925;52.588;13.370;2024-03-22T11:25:33;13.30;99.90
9772;DHT22;4925;52.588;13.370;2024-03-22T11:28:00;13.20;99.90
9772;DHT22;4925;52.588;13.370;2024-03-22T11:30:30;13.10;99.90
9772;DHT22;4925;52.588;13.370;2024-03-22T11:32:57;13.10;99.90
9772;DHT22;4925;52.588;13.370;2024-03-22T11:35:24;13.10;99.90
9772;DHT22;4925;52.588;13.370;2024-03-22T11:37:50;13.20;99.90
9772;DHT22;4925;52.588;13.370;2024-03-22T11:40:18;13.10;99.90
9772;DHT22;4925;52.588;13.370;2024-03-22T11:42:52;13.00;99.90
9772;DHT22;4925;52.588;13.370;2024-03-22T11:45:19;12.90;99.90
9772;DHT22;4925;52.588;13.370;2024-03-22T11:47:47;12.80;99.90
9772;DHT22;4925;52.588;13.370;2024-03-22T11:50:13;12.80;99.90
9772;DHT22;4925;52.588;13.370;2024-03-22T11:52:42;12.80;99.90
9772;DHT22;4925;52.588;13.370;2024-03-22T11:55:11;12.90;99.90
9772;DHT22;4925;52.588;13.370;2024-03-22T11:57:37;12.90;99.90
9772;DHT22;4925;52.588;13.370;2024-03-22T12:00:04;12.80;99.90
9772;DHT22;4925;52.588;13.370;2024-03-22T12:02:36;12.90;99.90
9772;DHT22;4925;52.588;13.370;2024-03-22T12:05:02;12.90;99.90
9772;DHT22;4925;52.588;13.370;2024-03-22T12:07:30;12.90;99.90
9772;DHT22;4925;52.588;13.370;2024-03-22T12:09:56;12.90;99.90
9772;DHT22;4925;52.588;13.370;2024-03-22T12:12:22;12.80;99.90
9772;DHT22;4925;52.588;13.370;2024-03-22T12:14:51;12.70;99.90
9772;DHT22;4925;52.588;13.370;2024-03-22T12:17:17;12.60;99.90
9772;DHT22;4925;52.588;13.370;2024-03-22T12:19:43;12.50;99.90
9772;DHT22;4925;52.588;13.370;2024-03-22T12:22:09;12.40;99.90
9772;DHT22;4925;52.588;13.370;2024-03-22T12:24:35;12.30;99.90
9772;DHT22;4925;52.588;13.370;2024-03-22T12:27:01;12.10;99.90
9772;DHT22;4925;52.588;13.370;2024-03-22T12:29:27;12.20;99.90
9772;DHT22;4925;52.588;13.370;2024-03-22T12:31:53;12.20;99.90
9772;DHT22;4925;52.588;13.370;2024-03-22T12:34:18;12.20;99.90
9772;DHT22;4925;52.588;13.370;2024-03-22T12:36:44;12.10;99.90
9772;DHT22;4925;52.588;13.370;2024-03-22T12:39:10;12.00;99.90
9772;DHT22;4925;52.588;13.370;2024-03-22T12:41:36;11.90;99.90
9772;DHT22;4925;52.588;13.370;2024-03-22T12:44:03;11.80;99.90
9772;DHT22;4925;52.588;13.370;2024-03-22T12:46:29;11.80;99.90
9772;DHT22;4925;52.588;13.370;2024-03-22T12:48:55;11.80;99.90
9772;DHT22;4925;52.588;13.370;2024-03-22T12:51:21;11.80;99.90
9772;DHT22;4925;52.588;13.370;2024-03-22T12:53:49;11.80;99.90
9772;DHT22;4925;52.588;13.370;2024-03-22T12:56:15;11.80;99.90
9772;DHT22;4925;52.588;13.370;2024-03-22T12:58:41;11.80;99.90
9772;DHT22;4925;52.588;13.370;2024-03-22T13:01:09;11.80;99.90
9772;DHT22;4925;52.588;13.370;2024-03-22T13:03:36;11.80;99.90
9772;DHT22;4925;52.588;13.370;2024-03-22T13:06:04;11.80;99.90
9772;DHT22;4925;52.588;13.370;2024-03-22T13:08:31;11.80;99.90
9772;DHT22;4925;52.588;13.370;2024-03-22T13:10:57;11.80;99.90
9772;DHT22;4925;52.588;13.370;2024-03-22T13:13:24;11.80;99.90
9772;DHT22;4925;52.588;13.370;2024-03-22T13:15:50;11.80;99.90
9772;DHT22;4925;52.588;13.370;2024-03-22T13:18:16;11.80;99.90
9772;DHT22;4925;52.588;13.370;2024-03-22T13:20:41;11.80;99.90
9772;DHT22;4925;52.588;13.370;2024-03-22T13:23:07;11.90;99.90
9772;DHT22;4925;52.588;13.370;2024-03-22T13:25:35;11.90;99.90
9772;DHT22;4925;52.588;13.370;2024-03-22T13:28:03;11.90;99.90
9772;DHT22;4925;52.588;13.370;2024-03-22T13:30:30;12.00;99.90
9772;DHT22;4925;52.588;13.370;2024-03-22T13:32:56;12.10;99.90
9772;DHT22;4925;52.588;13.370;2024-03-22T13:35:22;12.10;99.90
9772;DHT22;4925;52.588;13.370;2024-03-22T13:37:48;12.10;99.90
9772;DHT22;4925;52.588;13.370;2024-03-22T13:40:13;12.10;99.90
9772;DHT22;4925;52.588;13.370;2024-03-22T13:42:41;12.00;99.90
9772;DHT22;4925;52.588;13.370;2024-03-22T13:45:07;12.00;99.90
9772;DHT22;4925;52.588;13.370;2024-03-22T13:47:34;12.10;99.90
9772;DHT22;4925;52.588;13.370;2024-03-22T13:50:04;12.00;99.90
9772;DHT22;4925;52.588;13.370;2024-03-22T13:52:30;12.00;99.90
9772;DHT22;4925;52.588;13.370;2024-03-22T13:54:55;11.90;99.90
9772;DHT22;4925;52.588;13.370;2024-03-22T13:57:21;11.90;99.90
9772;DHT22;4925;52.588;13.370;2024-03-22T13:59:47;11.90;99.90
9772;DHT22;4925;52.588;13.370;2024-03-22T14:02:13;11.90;99.90
9772;DHT22;4925;52.588;13.370;2024-03-22T14:04:38;12.00;99.90
9772;DHT22;4925;52.588;13.370;2024-03-22T14:07:05;11.90;99.90
9772;DHT22;4925;52.588;13.370;2024-03-22T14:09:32;11.90;99.90
9772;DHT22;4925;52.588;13.370;2024-03-22T14:11:58;12.00;99.90
9772;DHT22;4925;52.588;13.370;2024-03-22T14:14:28;12.00;99.90
9772;DHT22;4925;52.588;13.370;2024-03-22T14:17:00;12.10;99.90
9772;DHT22;4925;52.588;13.370;2024-03-22T14:19:26;12.10;99.90
9772;DHT22;4925;52.588;13.370;2024-03-22T14:21:51;12.10;99.90
9772;DHT22;4925;52.588;13.370;2024-03-22T14:24:17;12.00;99.90
9772;DHT22;4925;52.588;13.370;2024-03-22T14:26:43;12.00;99.90
9772;DHT22;4925;52.588;13.370;2024-03-22T14:29:09;11.90;99.90
9772;DHT22;4925;52.588;13.370;2024-03-22T14:31:35;11.90;99.90
9772;DHT22;4925;52.588;13.370;2024-03-22T14:34:01;11.90;99.90
9772;DHT22;4925;52.588;13.370;2024-03-22T14:36:27;12.00;99.90
9772;DHT22;4925;52.588;13.370;2024-03-22T14:38:52;12.10;99.90
9772;DHT22;4925;52.588;13.370;2024-03-22T14:41:19;12.10;99.90
9772;DHT22;4925;52.588;13.370;2024-03-22T14:43:45;12.10;99.90
9772;DHT22;4925;52.588;13.370;2024-03-22T14:46:10;12.10;99.90
9772;DHT22;4925;52.588;13.370;2024-03-22T14:48:37;12.20;99.90
9772;DHT22;4925;52.588;13.370;2024-03-22T14:51:02;12.20;99.90
9772;DHT22;4925;52.588;13.370;2024-03-22T14:53:28;12.10;99.90
9772;DHT22;4925;52.588;13.370;2024-03-22T14:56:00;12.20;99.90
9772;DHT22;4925;52.588;13.370;2024-03-22T14:58:31;12.20;99.90
9772;DHT22;4925;52.588;13.370;2024-03-22T15:01:02;12.30;99.90
9772;DHT22;4925;52.588;13.370;2024-03-22T15:03:28;12.20;99.90
9772;DHT22;4925;52.588;13.370;2024-03-22T15:05:56;12.10;99.90
9772;DHT22;4925;52.588;13.370;2024-03-22T15:08:30;12.20;99.90
9772;DHT22;4925;52.588;13.370;2024-03-22T15:10:59;12.10;99.90
9772;DHT22;4925;52.588;13.370;2024-03-22T15:13:25;12.10;99.90
9772;DHT22;4925;52.588;13.370;2024-03-22T15:15:54;12.20;99.90
9772;DHT22;4925;52.588;13.370;2024-03-22T15:18:20;12.20;99.90
9772;DHT22;4925;52.588;13.370;2024-03-22T15:20:46;12.20;99.90
9772;DHT22;4925;52.588;13.370;2024-03-22T15:23:13;12.20;99.90
9772;DHT22;4925;52.588;13.370;2024-03-22T15:25:38;12.20;99.90
9772;DHT22;4925;52.588;13.370;2024-03-22T15:28:05;12.20;99.90
9772;DHT22;4925;52.588;13.370;2024-03-22T15:30:48;12.10;99.90
9772;DHT22;4925;52.588;13.370;2024-03-22T15:33:17;12.20;99.90
9772;DHT22;4925;52.588;13.370;2024-03-22T15:36:26;12.20;99.90
9772;DHT22;4925;52.588;13.370;2024-03-22T15:38:56;12.30;99.90
9772;DHT22;4925;52.588;13.370;2024-03-22T15:41:22;12.20;99.90
9772;DHT22;4925;52.588;13.370;2024-03-22T15:43:47;12.30;99.90
9772;DHT22;4925;52.588;13.370;2024-03-22T15:46:13;12.20;99.90
9772;DHT22;4925;52.588;13.370;2024-03-22T15:48:39;12.20;99.90
9772;DHT22;4925;52.588;13.370;2024-03-22T15:51:05;12.20;99.90
9772;DHT22;4925;52.588;13.370;2024-03-22T15:53:30;12.20;99.90
9772;DHT22;4925;52.588;13.370;2024-03-22T15:55:56;12.10;99.90